Time;durP1;ratioP1;P1;durP2;ratioP2;P2;SDS_P1;SDS_P2;PMS_P1;PMS_P2;Temp;Humidity;BMP_temperature;BMP_pressure;BME280_temperature;BME280_humidity;BME280_pressure;Samples;Min_cycle;Max_cycle;Signal;HPM_P1;HPM_P2
2021/04/28 00:01:48;;;;;;;10.95;5.53;;;;;;;;;;4984276;28;20033;-83
2021/04/28 00:04:33;;;;;;;10.57;5.07;;;;;;;;;;4991310;28;20025;-83
2021/04/28 00:07:18;;;;;;;13.80;5.80;;;;;;;;;;4995030;28;20026;-83
2021/04/28 00:10:05;;;;;;;11.32;5.72;;;;;;;;;;5010189;28;20372;-83
2021/04/28 00:12:50;;;;;;;13.35;5.50;;;;;;;;;;5001381;28;20112;-84
2021/04/28 00:15:36;;;;;;;11.85;5.70;;;;;;;;;;5003832;28;20087;-84
2021/04/28 00:18:22;;;;;;;8.63;5.28;;;;;;;;;;5004017;28;20025;-84
2021/04/28 00:21:08;;;;;;;11.13;5.30;;;;;;;;;;5009526;28;20033;-83
2021/04/28 00:23:55;;;;;;;8.23;5.07;;;;;;;;;;5002429;28;20484;-83
2021/04/28 00:26:40;;;;;;;13.18;6.10;;;;;;;;;;5004872;28;20033;-84
2021/04/28 00:29:25;;;;;;;15.18;6.10;;;;;;;;;;5001163;28;20037;-83
2021/04/28 00:32:10;;;;;;;10.90;6.50;;;;;;;;;;5002118;28;20056;-84
2021/04/28 00:34:56;;;;;;;9.70;5.40;;;;;;;;;;4998750;28;20037;-83
2021/04/28 00:37:41;;;;;;;12.82;5.47;;;;;;;;;;5008014;28;20041;-84
2021/04/28 00:40:31;;;;;;;10.50;4.88;;;;;;;;;;5002787;28;20026;-83
2021/04/28 00:43:17;;;;;;;9.57;4.72;;;;;;;;;;4998513;28;20093;-83
2021/04/28 00:46:03;;;;;;;10.68;5.10;;;;;;;;;;5003511;28;20101;-83
2021/04/28 00:48:48;;;;;;;10.35;5.38;;;;;;;;;;5003869;28;20038;-84
2021/04/28 00:51:34;;;;;;;9.48;5.30;;;;;;;;;;5004751;28;20018;-83
2021/04/28 00:54:20;;;;;;;9.50;5.97;;;;;;;;;;5003595;28;20030;-85
2021/04/28 00:57:05;;;;;;;11.82;5.15;;;;;;;;;;5006229;28;20226;-84
2021/04/28 00:59:51;;;;;;;13.30;5.78;;;;;;;;;;5000008;28;20365;-83
2021/04/28 01:02:36;;;;;;;8.40;4.70;;;;;;;;;;5006125;28;20065;-84
2021/04/28 01:05:22;;;;;;;7.63;4.97;;;;;;;;;;5001045;28;20032;-84
2021/04/28 01:08:07;;;;;;;8.55;5.28;;;;;;;;;;5006373;28;20176;-84
2021/04/28 01:10:53;;;;;;;12.35;5.63;;;;;;;;;;4996473;28;20021;-85
2021/04/28 01:13:38;;;;;;;12.07;6.03;;;;;;;;;;5001590;28;20021;-84
2021/04/28 01:16:24;;;;;;;11.60;6.22;;;;;;;;;;5001398;28;20522;-83
2021/04/28 01:19:09;;;;;;;8.52;5.65;;;;;;;;;;5006879;28;20026;-83
2021/04/28 01:21:55;;;;;;;10.18;6.15;;;;;;;;;;4987033;28;20021;-84
2021/04/28 01:24:40;;;;;;;9.20;6.43;;;;;;;;;;4999996;28;20333;-85
2021/04/28 01:27:26;;;;;;;13.30;6.25;;;;;;;;;;5007743;28;20483;-84
2021/04/28 01:30:13;;;;;;;15.27;6.47;;;;;;;;;;4998954;28;20080;-84
2021/04/28 01:32:58;;;;;;;12.35;6.00;;;;;;;;;;4980337;28;20086;-83
2021/04/28 01:35:44;;;;;;;19.75;6.53;;;;;;;;;;4993920;28;20034;-84
2021/04/28 01:38:31;;;;;;;9.00;5.65;;;;;;;;;;5003450;28;20129;-84
2021/04/28 01:41:16;;;;;;;14.32;5.97;;;;;;;;;;5003552;28;20033;-83
2021/04/28 01:44:03;;;;;;;9.57;5.40;;;;;;;;;;5005590;28;20520;-83
2021/04/28 01:46:51;;;;;;;12.63;6.80;;;;;;;;;;5003498;28;20064;-83
2021/04/28 01:49:37;;;;;;;14.68;6.30;;;;;;;;;;5015163;28;20060;-82
2021/04/28 01:52:22;;;;;;;11.27;6.20;;;;;;;;;;4995510;28;20033;-82
2021/04/28 01:55:08;;;;;;;9.88;5.75;;;;;;;;;;5003443;28;21729;-83
2021/04/28 01:57:54;;;;;;;9.35;5.70;;;;;;;;;;5004255;28;20024;-83
2021/04/28 02:00:39;;;;;;;11.38;5.85;;;;;;;;;;4990986;28;20025;-85
2021/04/28 02:03:26;;;;;;;13.32;6.18;;;;;;;;;;4993706;28;20427;-83
2021/04/28 02:06:11;;;;;;;12.43;6.18;;;;;;;;;;4999283;28;20108;-82
2021/04/28 02:08:56;;;;;;;11.60;6.30;;;;;;;;;;5003419;28;20022;-83
2021/04/28 02:11:42;;;;;;;11.63;6.68;;;;;;;;;;5010075;28;20029;-83
2021/04/28 02:14:29;;;;;;;9.85;5.55;;;;;;;;;;5007368;28;20022;-83
2021/04/28 02:17:15;;;;;;;10.88;5.80;;;;;;;;;;5001889;28;20052;-83
2021/04/28 02:20:00;;;;;;;10.60;5.40;;;;;;;;;;5002650;28;20236;-83
2021/04/28 02:22:46;;;;;;;12.50;6.18;;;;;;;;;;5006881;28;20022;-83
2021/04/28 02:25:31;;;;;;;11.50;6.55;;;;;;;;;;5000194;28;20633;-83
2021/04/28 02:28:17;;;;;;;11.32;6.85;;;;;;;;;;5001741;28;20032;-83
2021/04/28 02:31:02;;;;;;;10.73;6.13;;;;;;;;;;5008055;28;20112;-83
2021/04/28 02:33:47;;;;;;;14.00;6.90;;;;;;;;;;5000236;28;20022;-82
2021/04/28 02:36:34;;;;;;;11.77;5.95;;;;;;;;;;5007264;28;20033;-85
2021/04/28 02:39:36;;;;;;;13.10;6.32;;;;;;;;;;5015824;28;20033;-83
2021/04/28 02:42:22;;;;;;;14.40;6.22;;;;;;;;;;5022609;28;20025;-83
2021/04/28 02:45:08;;;;;;;11.55;5.55;;;;;;;;;;5005835;28;20045;-85
2021/04/28 02:47:54;;;;;;;9.73;6.05;;;;;;;;;;5010908;28;20032;-83
2021/04/28 02:50:39;;;;;;;10.68;6.50;;;;;;;;;;5017495;28;20053;-83
2021/04/28 02:53:25;;;;;;;12.05;5.47;;;;;;;;;;5002969;28;20033;-83
2021/04/28 02:56:11;;;;;;;8.32;5.88;;;;;;;;;;5005757;28;20026;-83
2021/04/28 02:58:57;;;;;;;11.85;6.15;;;;;;;;;;5005197;28;20033;-83
2021/04/28 03:01:43;;;;;;;12.25;6.05;;;;;;;;;;5009839;28;20084;-84
2021/04/28 03:04:29;;;;;;;12.45;6.25;;;;;;;;;;5017076;28;20471;-84
2021/04/28 03:07:14;;;;;;;12.55;6.00;;;;;;;;;;4990725;28;20033;-83
2021/04/28 03:10:00;;;;;;;12.05;5.72;;;;;;;;;;4978049;28;20141;-83
2021/04/28 03:12:46;;;;;;;15.20;6.78;;;;;;;;;;4996849;28;20033;-83
2021/04/28 03:15:31;;;;;;;12.77;6.05;;;;;;;;;;5001714;28;20056;-82
2021/04/28 03:18:16;;;;;;;12.32;5.72;;;;;;;;;;4977174;28;20030;-82
2021/04/28 03:21:02;;;;;;;14.77;6.22;;;;;;;;;;5003074;28;20048;-83
2021/04/28 03:23:47;;;;;;;13.50;6.30;;;;;;;;;;5002800;28;20028;-84
2021/04/28 03:26:33;;;;;;;10.95;6.50;;;;;;;;;;5001003;28;20026;-84
2021/04/28 03:29:18;;;;;;;10.30;6.43;;;;;;;;;;5002325;28;20049;-84
2021/04/28 03:32:04;;;;;;;16.20;6.80;;;;;;;;;;5003301;28;20053;-83
2021/04/28 03:34:49;;;;;;;11.05;6.30;;;;;;;;;;5004303;28;20065;-83
2021/04/28 03:37:34;;;;;;;15.95;7.40;;;;;;;;;;4999058;28;20029;-82
2021/04/28 03:40:19;;;;;;;12.77;7.60;;;;;;;;;;4993247;28;20666;-84
2021/04/28 03:43:05;;;;;;;12.68;6.78;;;;;;;;;;4999442;28;20038;-82
2021/04/28 03:45:51;;;;;;;14.32;6.80;;;;;;;;;;5008993;28;20132;-83
2021/04/28 03:48:37;;;;;;;16.35;7.18;;;;;;;;;;5005945;28;20431;-82
2021/04/28 03:51:22;;;;;;;13.85;7.40;;;;;;;;;;4998723;28;20494;-83
2021/04/28 03:54:07;;;;;;;14.05;7.43;;;;;;;;;;5007222;28;20083;-83
2021/04/28 03:56:53;;;;;;;15.90;7.10;;;;;;;;;;5005522;28;20025;-83
2021/04/28 03:59:38;;;;;;;13.63;6.95;;;;;;;;;;5009690;28;20037;-82
2021/04/28 04:02:23;;;;;;;14.18;6.97;;;;;;;;;;5001802;28;20420;-84
2021/04/28 04:05:09;;;;;;;13.40;7.55;;;;;;;;;;5005050;28;20660;-84
2021/04/28 04:07:54;;;;;;;17.23;7.90;;;;;;;;;;5002077;28;20034;-83
2021/04/28 04:10:39;;;;;;;15.55;7.35;;;;;;;;;;5007642;28;20018;-84
2021/04/28 04:13:24;;;;;;;13.93;7.43;;;;;;;;;;5002102;28;20147;-85
2021/04/28 04:16:09;;;;;;;13.25;6.82;;;;;;;;;;4996751;28;20542;-83
2021/04/28 04:18:55;;;;;;;17.25;7.80;;;;;;;;;;4993448;28;20043;-84
2021/04/28 04:21:40;;;;;;;14.95;7.47;;;;;;;;;;4995073;28;20022;-85
2021/04/28 04:24:25;;;;;;;18.67;8.38;;;;;;;;;;4991660;28;20032;-85
2021/04/28 04:27:10;;;;;;;14.98;7.55;;;;;;;;;;5000306;28;20076;-85
2021/04/28 04:29:56;;;;;;;19.58;7.32;;;;;;;;;;4999898;28;20045;-83
2021/04/28 04:32:41;;;;;;;13.80;7.22;;;;;;;;;;4992923;28;20034;-83
2021/04/28 04:35:26;;;;;;;17.80;8.25;;;;;;;;;;4990070;28;20112;-83
2021/04/28 04:38:12;;;;;;;14.27;7.47;;;;;;;;;;4987056;28;20152;-83
2021/04/28 04:40:57;;;;;;;11.75;7.82;;;;;;;;;;4986270;28;20026;-83
2021/04/28 04:43:43;;;;;;;11.45;6.65;;;;;;;;;;4981430;28;20046;-82
2021/04/28 04:46:28;;;;;;;12.40;7.18;;;;;;;;;;4984012;28;20352;-82
2021/04/28 04:49:13;;;;;;;15.07;8.02;;;;;;;;;;4985604;28;20021;-83
2021/04/28 04:51:58;;;;;;;15.02;7.97;;;;;;;;;;4989618;28;20036;-83
2021/04/28 04:54:44;;;;;;;13.93;7.75;;;;;;;;;;4989861;28;20025;-83
2021/04/28 04:57:29;;;;;;;17.15;7.50;;;;;;;;;;4989594;28;20516;-83
2021/04/28 05:00:14;;;;;;;16.67;7.97;;;;;;;;;;4981871;28;20030;-84
2021/04/28 05:02:59;;;;;;;12.45;8.25;;;;;;;;;;4991971;28;20018;-83
2021/04/28 05:05:45;;;;;;;13.10;7.15;;;;;;;;;;4987413;28;20026;-83
2021/04/28 05:08:30;;;;;;;18.45;8.40;;;;;;;;;;4984509;28;20109;-83
2021/04/28 05:11:15;;;;;;;13.50;7.13;;;;;;;;;;4980182;28;20034;-83
2021/04/28 05:14:02;;;;;;;16.10;7.63;;;;;;;;;;4985132;28;20045;-83
2021/04/28 05:16:47;;;;;;;13.43;8.13;;;;;;;;;;4989915;28;20103;-83
2021/04/28 05:19:33;;;;;;;19.13;8.65;;;;;;;;;;4984578;28;20032;-86
2021/04/28 05:22:26;;;;;;;13.30;7.18;;;;;;;;;;4992508;28;20032;-85
2021/04/28 05:25:12;;;;;;;17.40;8.07;;;;;;;;;;4971225;28;20029;-83
2021/04/28 05:27:57;;;;;;;13.55;7.18;;;;;;;;;;4988871;28;20076;-83
2021/04/28 05:30:42;;;;;;;13.07;8.35;;;;;;;;;;4986964;28;20048;-83
2021/04/28 05:33:28;;;;;;;14.88;7.25;;;;;;;;;;4982908;28;20037;-84
2021/04/28 05:36:13;;;;;;;16.05;8.40;;;;;;;;;;4978174;28;20069;-85
2021/04/28 05:39:00;;;;;;;17.83;8.90;;;;;;;;;;4992246;28;20025;-84
2021/04/28 05:41:45;;;;;;;11.98;7.75;;;;;;;;;;4992813;28;20033;-86
2021/04/28 05:44:30;;;;;;;27.35;14.63;;;;;;;;;;4976785;28;20159;-84
2021/04/28 05:47:15;;;;;;;20.10;11.23;;;;;;;;;;4986000;28;20060;-83
2021/04/28 05:50:01;;;;;;;13.85;7.85;;;;;;;;;;4980892;28;20021;-82
2021/04/28 05:52:47;;;;;;;12.48;8.82;;;;;;;;;;4993280;28;20391;-83
2021/04/28 05:55:32;;;;;;;19.13;8.10;;;;;;;;;;4986003;28;20105;-82
2021/04/28 05:58:17;;;;;;;17.27;8.25;;;;;;;;;;4969277;28;20026;-83
2021/04/28 06:01:03;;;;;;;17.70;8.57;;;;;;;;;;4976238;28;20029;-85
2021/04/28 06:03:48;;;;;;;19.45;9.35;;;;;;;;;;4986429;28;20018;-82
2021/04/28 06:06:33;;;;;;;16.25;8.25;;;;;;;;;;4983081;28;20072;-87
2021/04/28 06:09:18;;;;;;;11.93;7.95;;;;;;;;;;4989489;28;20033;-86
2021/04/28 06:12:04;;;;;;;14.48;8.27;;;;;;;;;;4992465;28;20069;-83
2021/04/28 06:14:49;;;;;;;15.45;7.43;;;;;;;;;;4985676;28;20551;-86
2021/04/28 06:17:34;;;;;;;17.38;7.97;;;;;;;;;;4985074;28;20034;-85
2021/04/28 06:20:20;;;;;;;19.25;8.68;;;;;;;;;;4994321;28;20022;-84
2021/04/28 06:23:05;;;;;;;14.93;7.57;;;;;;;;;;4987233;28;20025;-84
2021/04/28 06:25:50;;;;;;;17.10;8.40;;;;;;;;;;4989084;28;20480;-83
2021/04/28 06:28:35;;;;;;;18.55;7.90;;;;;;;;;;4992443;28;20117;-89
2021/04/28 06:31:21;;;;;;;12.95;7.72;;;;;;;;;;4990342;28;20457;-84
2021/04/28 06:34:06;;;;;;;13.45;7.60;;;;;;;;;;4990407;28;20030;-86
2021/04/28 06:36:51;;;;;;;18.85;13.25;;;;;;;;;;4981376;28;20038;-85
2021/04/28 06:39:36;;;;;;;23.52;13.27;;;;;;;;;;4987592;28;20049;-84
2021/04/28 06:42:22;;;;;;;20.30;7.80;;;;;;;;;;4987605;28;20030;-87
2021/04/28 06:45:12;;;;;;;17.15;8.70;;;;;;;;;;4990995;28;20104;-88
2021/04/28 06:48:00;;;;;;;19.08;8.10;;;;;;;;;;4994235;28;20041;-85
2021/04/28 06:50:45;;;;;;;15.85;7.85;;;;;;;;;;4989261;28;20042;-85
2021/04/28 06:53:30;;;;;;;16.73;8.70;;;;;;;;;;4993842;28;20445;-85
2021/04/28 06:56:16;;;;;;;17.23;8.90;;;;;;;;;;4992905;28;20400;-82
2021/04/28 06:59:01;;;;;;;14.40;9.27;;;;;;;;;;4990711;28;20032;-86
2021/04/28 07:01:51;;;;;;;15.18;8.50;;;;;;;;;;4984432;28;20473;-86
2021/04/28 07:04:36;;;;;;;17.25;8.45;;;;;;;;;;4990966;28;20037;-86
2021/04/28 07:07:22;;;;;;;17.20;9.77;;;;;;;;;;4996321;28;20029;-87
2021/04/28 07:10:08;;;;;;;20.45;9.27;;;;;;;;;;4989558;28;20018;-84
2021/04/28 07:12:53;;;;;;;15.90;9.93;;;;;;;;;;4988527;28;20057;-85
2021/04/28 07:15:39;;;;;;;20.25;9.82;;;;;;;;;;4987518;28;20515;-85
2021/04/28 07:18:24;;;;;;;20.52;9.90;;;;;;;;;;4991168;28;20112;-85
2021/04/28 07:21:11;;;;;;;24.33;16.17;;;;;;;;;;4985772;28;20061;-84
2021/04/28 07:23:56;;;;;;;17.70;12.57;;;;;;;;;;4980141;28;20032;-83
2021/04/28 07:26:41;;;;;;;17.92;10.25;;;;;;;;;;4988609;28;20025;-85
2021/04/28 07:29:27;;;;;;;19.05;10.63;;;;;;;;;;4978372;28;20050;-85
2021/04/28 07:32:12;;;;;;;15.85;9.70;;;;;;;;;;4992940;28;20026;-87
2021/04/28 07:34:57;;;;;;;23.42;10.52;;;;;;;;;;4981802;28;20041;-82
2021/04/28 07:37:42;;;;;;;15.90;10.98;;;;;;;;;;4986054;28;20502;-84
2021/04/28 07:40:28;;;;;;;16.70;10.25;;;;;;;;;;4970756;28;20049;-84
2021/04/28 07:43:13;;;;;;;20.52;12.15;;;;;;;;;;4985845;28;20025;-85
2021/04/28 07:45:58;;;;;;;17.60;10.68;;;;;;;;;;4985066;28;20128;-84
2021/04/28 07:48:44;;;;;;;21.40;11.18;;;;;;;;;;4985069;28;20100;-83
2021/04/28 07:51:30;;;;;;;16.08;9.93;;;;;;;;;;4980237;28;20025;-84
2021/04/28 07:54:15;;;;;;;16.55;10.77;;;;;;;;;;4988649;28;20596;-83
2021/04/28 07:57:01;;;;;;;25.08;11.98;;;;;;;;;;4988048;28;20305;-84
2021/04/28 07:59:47;;;;;;;21.70;10.45;;;;;;;;;;4988940;28;20097;-83
2021/04/28 08:02:32;;;;;;;21.80;10.32;;;;;;;;;;4984083;28;20026;-83
2021/04/28 08:05:17;;;;;;;20.90;11.80;;;;;;;;;;4983171;28;20121;-84
2021/04/28 08:08:03;;;;;;;21.83;11.35;;;;;;;;;;4977683;28;20044;-82
2021/04/28 08:10:48;;;;;;;19.80;10.65;;;;;;;;;;4987306;28;20032;-82
2021/04/28 08:13:33;;;;;;;17.67;10.63;;;;;;;;;;4984129;28;20120;-82
2021/04/28 08:16:20;;;;;;;22.95;12.00;;;;;;;;;;4977781;28;20322;-82
2021/04/28 08:19:05;;;;;;;16.90;11.15;;;;;;;;;;4986816;28;20285;-86
2021/04/28 08:21:50;;;;;;;17.05;9.82;;;;;;;;;;4985717;28;20100;-84
2021/04/28 08:24:35;;;;;;;18.67;10.77;;;;;;;;;;4989018;28;20516;-83
2021/04/28 08:27:21;;;;;;;19.75;11.18;;;;;;;;;;4985377;28;20362;-84
2021/04/28 08:30:08;;;;;;;17.95;11.45;;;;;;;;;;4998682;28;20064;-83
2021/04/28 08:32:53;;;;;;;20.27;10.43;;;;;;;;;;5000827;28;20025;-83
2021/04/28 08:35:38;;;;;;;26.05;12.82;;;;;;;;;;5004332;28;20033;-85
2021/04/28 08:38:23;;;;;;;22.48;15.07;;;;;;;;;;5002529;28;20028;-85
2021/04/28 08:41:10;;;;;;;26.73;16.08;;;;;;;;;;5004223;28;20044;-86
2021/04/28 08:43:56;;;;;;;20.13;11.93;;;;;;;;;;5002645;28;20403;-83
2021/04/28 08:46:42;;;;;;;20.33;11.63;;;;;;;;;;5011106;28;20030;-84
2021/04/28 08:49:27;;;;;;;19.25;12.30;;;;;;;;;;5006572;28;20029;-83
2021/04/28 08:52:13;;;;;;;15.20;11.60;;;;;;;;;;5011155;28;20021;-84
2021/04/28 08:54:58;;;;;;;20.67;11.32;;;;;;;;;;5013247;28;20052;-83
2021/04/28 08:57:44;;;;;;;15.40;11.25;;;;;;;;;;5000736;28;20031;-83
2021/04/28 09:00:29;;;;;;;15.93;11.07;;;;;;;;;;4999972;28;20584;-84
2021/04/28 09:03:17;;;;;;;18.60;11.00;;;;;;;;;;4987966;28;20018;-83
2021/04/28 09:06:02;;;;;;;21.33;15.73;;;;;;;;;;5002591;28;20028;-84
2021/04/28 09:08:48;;;;;;;23.63;16.38;;;;;;;;;;5002722;28;20033;-84
2021/04/28 09:11:39;;;;;;;17.10;11.00;;;;;;;;;;5000562;28;20087;-84
2021/04/28 09:14:30;;;;;;;16.65;11.15;;;;;;;;;;4998127;28;20037;-84
2021/04/28 09:17:15;;;;;;;14.43;10.57;;;;;;;;;;5007755;28;20021;-85
2021/04/28 09:20:18;;;;;;;16.13;11.80;;;;;;;;;;5009716;28;20110;-84
2021/04/28 09:23:07;;;;;;;17.55;11.48;;;;;;;;;;5010418;28;20069;-84
2021/04/28 09:25:53;;;;;;;18.10;10.30;;;;;;;;;;5005071;28;20017;-83
2021/04/28 09:28:39;;;;;;;16.30;12.13;;;;;;;;;;5001299;28;20037;-85
2021/04/28 09:31:24;;;;;;;17.48;11.15;;;;;;;;;;5011390;28;20115;-84
2021/04/28 09:34:09;;;;;;;20.75;14.10;;;;;;;;;;5008164;28;21048;-85
2021/04/28 09:37:02;;;;;;;16.88;12.02;;;;;;;;;;5004454;28;20025;-85
2021/04/28 09:39:48;;;;;;;17.90;11.65;;;;;;;;;;4999791;28;20033;-83
2021/04/28 09:42:50;;;;;;;17.27;12.88;;;;;;;;;;5004433;28;20080;-84
2021/04/28 09:45:42;;;;;;;16.70;11.82;;;;;;;;;;5012198;28;20025;-84
2021/04/28 09:48:28;;;;;;;15.43;10.65;;;;;;;;;;5018242;28;20043;-85
2021/04/28 09:51:13;;;;;;;16.33;11.23;;;;;;;;;;5009054;28;20014;-85
2021/04/28 09:54:11;;;;;;;16.00;11.25;;;;;;;;;;5011024;28;20100;-84
2021/04/28 09:56:58;;;;;;;19.10;11.27;;;;;;;;;;5003696;28;20017;-84
2021/04/28 09:59:43;;;;;;;16.92;9.63;;;;;;;;;;5007966;28;20022;-84
2021/04/28 10:02:30;;;;;;;12.52;8.88;;;;;;;;;;5007035;28;20044;-81
2021/04/28 10:05:19;;;;;;;15.38;10.23;;;;;;;;;;5002137;28;20015;-83
2021/04/28 10:08:20;;;;;;;14.57;9.13;;;;;;;;;;5005581;28;20380;-81
2021/04/28 10:11:06;;;;;;;13.38;7.82;;;;;;;;;;5007731;28;20073;-79
2021/04/28 10:13:51;;;;;;;14.75;8.50;;;;;;;;;;5008932;28;20030;-80
2021/04/28 10:16:36;;;;;;;17.85;12.98;;;;;;;;;;5001040;28;20088;-81
2021/04/28 10:19:25;;;;;;;19.08;11.80;;;;;;;;;;5006391;28;20028;-80
2021/04/28 10:22:11;;;;;;;20.08;12.02;;;;;;;;;;4991635;28;20144;-79
2021/04/28 10:24:57;;;;;;;17.00;9.65;;;;;;;;;;5010767;28;20068;-78
2021/04/28 10:27:43;;;;;;;16.70;10.88;;;;;;;;;;5005350;28;20488;-79
2021/04/28 10:30:29;;;;;;;18.45;12.02;;;;;;;;;;5003321;28;20447;-79
2021/04/28 10:33:17;;;;;;;22.48;11.70;;;;;;;;;;5004540;28;20579;-83
2021/04/28 10:36:05;;;;;;;16.40;10.85;;;;;;;;;;5008271;28;20037;-81
2021/04/28 10:38:51;;;;;;;17.33;11.13;;;;;;;;;;5004215;28;20115;-82
2021/04/28 10:41:41;;;;;;;16.48;10.00;;;;;;;;;;5003041;28;20045;-80
2021/04/28 10:44:29;;;;;;;15.80;10.65;;;;;;;;;;5001324;28;20029;-82
2021/04/28 10:47:14;;;;;;;20.00;10.73;;;;;;;;;;4997561;28;20063;-83
2021/04/28 10:50:00;;;;;;;13.38;9.70;;;;;;;;;;5001121;28;20361;-81
2021/04/28 10:53:00;;;;;;;19.55;10.88;;;;;;;;;;5002726;28;20492;-84
2021/04/28 10:55:49;;;;;;;14.27;9.20;;;;;;;;;;5000659;28;20057;-84
2021/04/28 10:58:35;;;;;;;18.05;9.73;;;;;;;;;;5008044;28;20037;-84
2021/04/28 11:01:21;;;;;;;14.57;9.52;;;;;;;;;;5008146;28;20052;-86
2021/04/28 11:04:11;;;;;;;10.45;7.45;;;;;;;;;;5006228;28;20429;-85
2021/04/28 11:06:56;;;;;;;;;;;;;;;;;;5006459;28;20021;-87
2021/04/28 11:09:41;;;;;;;13.13;7.88;;;;;;;;;;5003636;28;19916;-82
2021/04/28 11:12:26;;;;;;;16.65;10.30;;;;;;;;;;5008515;28;20036;-84
2021/04/28 11:15:32;;;;;;;10.93;7.30;;;;;;;;;;5010446;28;20116;-84
2021/04/28 11:18:27;;;;;;;12.65;7.60;;;;;;;;;;5003639;28;20368;-84
2021/04/28 11:21:12;;;;;;;9.77;6.43;;;;;;;;;;5006577;28;20120;-85
2021/04/28 11:24:07;;;;;;;15.43;8.43;;;;;;;;;;5003023;28;20049;-86
2021/04/28 11:26:52;;;;;;;13.45;8.25;;;;;;;;;;5012327;28;20025;-83
2021/04/28 11:29:54;;;;;;;13.20;6.85;;;;;;;;;;5005954;28;20135;-84
2021/04/28 11:32:39;;;;;;;11.70;7.22;;;;;;;;;;5002104;28;20021;-84
2021/04/28 11:35:24;;;;;;;12.18;7.50;;;;;;;;;;5003524;28;20126;-84
2021/04/28 11:38:12;;;;;;;10.00;6.80;;;;;;;;;;5004713;28;20026;-85
2021/04/28 11:41:01;;;;;;;12.52;7.75;;;;;;;;;;5007619;28;20037;-85
2021/04/28 11:43:46;;;;;;;9.73;7.03;;;;;;;;;;5006584;28;20251;-83
2021/04/28 11:46:32;;;;;;;12.95;7.82;;;;;;;;;;5004493;28;20031;-83
2021/04/28 11:49:18;;;;;;;13.50;7.80;;;;;;;;;;5001053;28;20302;-84
2021/04/28 11:52:03;;;;;;;11.45;7.75;;;;;;;;;;4995826;28;20025;-86
2021/04/28 11:54:56;;;;;;;11.50;8.07;;;;;;;;;;5003229;28;20053;-84
2021/04/28 11:57:41;;;;;;;11.82;7.15;;;;;;;;;;5005853;28;20072;-85
2021/04/28 12:00:31;;;;;;;13.63;7.65;;;;;;;;;;5001885;28;20484;-83
2021/04/28 12:03:17;;;;;;;17.92;8.93;;;;;;;;;;5007582;28;20080;-82
2021/04/28 12:06:22;;;;;;;13.38;7.65;;;;;;;;;;5005233;28;20047;-84
2021/04/28 12:09:10;;;;;;;10.65;6.75;;;;;;;;;;5005569;28;20018;-84
2021/04/28 12:12:28;;;;;;;16.83;7.60;;;;;;;;;;4989820;28;20129;-83
2021/04/28 12:15:14;;;;;;;14.45;7.93;;;;;;;;;;4967542;28;20060;-83
2021/04/28 12:17:59;;;;;;;14.00;8.05;;;;;;;;;;5004846;28;20088;-82
2021/04/28 12:20:45;;;;;;;14.68;8.85;;;;;;;;;;5004945;28;20479;-82
2021/04/28 12:23:30;;;;;;;13.85;7.45;;;;;;;;;;4994724;28;20029;-82
2021/04/28 12:26:15;;;;;;;12.15;6.10;;;;;;;;;;5003630;28;20025;-82
2021/04/28 12:29:00;;;;;;;9.90;6.60;;;;;;;;;;4989827;28;20033;-83
2021/04/28 12:31:46;;;;;;;17.13;7.30;;;;;;;;;;5001168;28;20036;-84
2021/04/28 12:34:31;;;;;;;10.70;7.03;;;;;;;;;;5009146;28;20468;-82
2021/04/28 12:37:19;;;;;;;12.32;6.10;;;;;;;;;;4993565;28;20037;-83
2021/04/28 12:40:05;;;;;;;11.25;6.50;;;;;;;;;;5005403;28;20036;-83
2021/04/28 12:42:51;;;;;;;8.95;5.90;;;;;;;;;;5005780;28;20026;-85
2021/04/28 12:45:36;;;;;;;13.13;9.88;;;;;;;;;;5009637;28;20039;-83
2021/04/28 12:48:22;;;;;;;12.55;7.95;;;;;;;;;;5002976;28;20108;-84
2021/04/28 12:51:13;;;;;;;11.68;7.95;;;;;;;;;;4999234;28;20550;-84
2021/04/28 12:53:59;;;;;;;16.00;7.72;;;;;;;;;;4999561;28;20025;-84
2021/04/28 12:56:44;;;;;;;11.98;6.85;;;;;;;;;;5006229;28;20087;-83
2021/04/28 12:59:30;;;;;;;10.45;6.78;;;;;;;;;;5005406;28;20128;-87
2021/04/28 13:02:18;;;;;;;10.70;6.70;;;;;;;;;;5002548;28;20021;-83
2021/04/28 13:05:04;;;;;;;12.07;6.97;;;;;;;;;;5001936;28;20017;-85
2021/04/28 13:07:49;;;;;;;12.57;7.65;;;;;;;;;;5002510;28;20021;-80
2021/04/28 13:10:34;;;;;;;13.43;7.55;;;;;;;;;;4999711;28;20036;-81
2021/04/28 13:13:52;;;;;;;15.75;7.50;;;;;;;;;;4999623;28;20073;-81
2021/04/28 13:16:51;;;;;;;13.25;8.43;;;;;;;;;;4986723;28;20100;-81
2021/04/28 13:19:40;;;;;;;13.00;7.25;;;;;;;;;;5002142;28;20037;-78
2021/04/28 13:22:25;;;;;;;;;;;;;;;;;;4998013;28;20025;-80
2021/04/28 13:25:11;;;;;;;19.05;6.90;;;;;;;;;;5001426;28;19905;-83
2021/04/28 13:27:56;;;;;;;11.88;7.45;;;;;;;;;;4999755;28;20084;-78
2021/04/28 13:30:41;;;;;;;16.63;7.28;;;;;;;;;;5004550;28;20045;-78
2021/04/28 13:33:35;;;;;;;15.23;8.20;;;;;;;;;;5003715;28;20075;-79
2021/04/28 13:36:21;;;;;;;12.73;7.15;;;;;;;;;;5001076;28;20096;-80
2021/04/28 13:39:11;;;;;;;15.32;6.63;;;;;;;;;;4998233;28;20488;-81
2021/04/28 13:41:57;;;;;;;13.40;6.75;;;;;;;;;;5004787;28;20411;-79
2021/04/28 13:44:51;;;;;;;30.65;20.77;;;;;;;;;;5006496;28;20053;-78
2021/04/28 13:47:36;;;;;;;14.68;9.43;;;;;;;;;;5007107;28;20034;-81
2021/04/28 13:50:22;;;;;;;16.88;8.35;;;;;;;;;;4997603;28;20041;-82
2021/04/28 13:53:07;;;;;;;12.13;7.55;;;;;;;;;;5004380;28;20041;-83
2021/04/28 13:55:54;;;;;;;10.82;6.80;;;;;;;;;;5002028;28;20100;-82
2021/04/28 13:58:39;;;;;;;11.63;5.95;;;;;;;;;;5003946;28;20038;-81
2021/04/28 14:01:24;;;;;;;12.68;7.55;;;;;;;;;;5002251;28;20032;-80
2021/04/28 14:04:13;;;;;;;16.77;7.75;;;;;;;;;;5010460;28;20029;-78
2021/04/28 14:07:10;;;;;;;11.10;7.30;;;;;;;;;;4992171;28;20387;-78
2021/04/28 14:13:19;;;;;;;15.07;7.10;;;;;;;;;;4982287;28;20030;-78
2021/04/28 14:16:04;;;;;;;12.65;6.63;;;;;;;;;;5004740;28;20036;-78
2021/04/28 14:18:59;;;;;;;12.10;5.95;;;;;;;;;;5006801;28;20091;-76
2021/04/28 14:21:44;;;;;;;13.00;8.25;;;;;;;;;;5005820;28;20413;-78
2021/04/28 14:24:30;;;;;;;15.13;9.15;;;;;;;;;;5008283;28;20548;-84
2021/04/28 14:27:15;;;;;;;11.23;6.88;;;;;;;;;;5009241;28;20026;-84
2021/04/28 14:30:33;;;;;;;13.85;6.43;;;;;;;;;;5004744;28;20048;-85
2021/04/28 14:37:07;;;;;;;12.15;7.10;;;;;;;;;;4886344;29;20029;-84
2021/04/28 14:39:52;;;;;;;10.25;6.45;;;;;;;;;;4935462;28;20070;-84
2021/04/28 14:42:38;;;;;;;12.93;6.20;;;;;;;;;;4996501;28;20080;-82
2021/04/28 14:45:24;;;;;;;15.13;7.25;;;;;;;;;;5006306;28;20021;-85
2021/04/28 14:48:09;;;;;;;12.43;8.80;;;;;;;;;;5011105;28;20033;-85
2021/04/28 14:50:56;;;;;;;11.25;5.90;;;;;;;;;;5018396;28;20048;-82
2021/04/28 14:53:42;;;;;;;12.50;7.88;;;;;;;;;;5000131;28;20033;-81
2021/04/28 14:56:27;;;;;;;13.80;7.22;;;;;;;;;;5001150;28;20144;-80
2021/04/28 14:59:12;;;;;;;15.07;8.55;;;;;;;;;;5002578;28;20024;-82
2021/04/28 15:01:57;;;;;;;12.68;7.00;;;;;;;;;;4993218;28;20040;-87
2021/04/28 15:04:43;;;;;;;13.05;6.95;;;;;;;;;;5011241;28;20041;-86
2021/04/28 15:07:28;;;;;;;12.05;5.97;;;;;;;;;;5006243;28;20443;-87
2021/04/28 15:10:14;;;;;;;11.13;6.85;;;;;;;;;;5002117;28;20029;-86
2021/04/28 15:12:59;;;;;;;15.95;7.35;;;;;;;;;;5009374;28;20017;-86
2021/04/28 15:15:45;;;;;;;12.85;6.60;;;;;;;;;;5002718;28;20021;-86
2021/04/28 15:18:31;;;;;;;10.35;6.32;;;;;;;;;;5010180;28;20029;-86
2021/04/28 15:21:16;;;;;;;12.60;7.93;;;;;;;;;;5008864;28;20037;-86
2021/04/28 15:24:01;;;;;;;11.13;6.22;;;;;;;;;;5007154;28;20393;-86
2021/04/28 15:26:47;;;;;;;13.05;6.63;;;;;;;;;;5016853;28;20037;-86
2021/04/28 15:29:33;;;;;;;15.88;6.35;;;;;;;;;;5011454;28;20045;-86
2021/04/28 15:32:18;;;;;;;10.55;6.32;;;;;;;;;;5019457;28;20017;-85
2021/04/28 15:35:04;;;;;;;10.63;6.30;;;;;;;;;;5015034;28;20025;-85
2021/04/28 15:37:50;;;;;;;13.27;5.90;;;;;;;;;;5003002;28;20051;-85
2021/04/28 15:40:37;;;;;;;12.48;5.82;;;;;;;;;;5007423;28;20159;-84
2021/04/28 15:43:22;;;;;;;11.43;6.20;;;;;;;;;;5010303;28;20029;-84
2021/04/28 15:46:07;;;;;;;14.82;6.97;;;;;;;;;;5015333;28;20021;-86
2021/04/28 15:48:52;;;;;;;10.05;6.22;;;;;;;;;;5004349;28;20452;-86
2021/04/28 15:51:38;;;;;;;11.88;5.80;;;;;;;;;;5004038;28;20028;-84
2021/04/28 15:54:27;;;;;;;13.45;5.93;;;;;;;;;;5000400;28;20022;-84
2021/04/28 15:57:12;;;;;;;11.77;5.88;;;;;;;;;;5012450;28;20097;-85
2021/04/28 15:59:57;;;;;;;12.30;6.55;;;;;;;;;;5007325;28;20120;-84
2021/04/28 16:02:43;;;;;;;10.02;5.43;;;;;;;;;;5013364;28;20102;-85
2021/04/28 16:05:28;;;;;;;10.25;6.10;;;;;;;;;;5000410;28;20029;-85
2021/04/28 16:08:13;;;;;;;10.25;5.50;;;;;;;;;;5009946;28;20033;-84
2021/04/28 16:10:58;;;;;;;12.10;5.15;;;;;;;;;;5011605;28;20100;-86
2021/04/28 16:13:44;;;;;;;10.73;5.22;;;;;;;;;;5006322;28;20035;-86
2021/04/28 16:16:31;;;;;;;9.32;5.10;;;;;;;;;;5001979;28;20496;-85
2021/04/28 16:19:19;;;;;;;8.93;5.00;;;;;;;;;;5006082;28;20415;-85
2021/04/28 16:22:05;;;;;;;14.13;5.60;;;;;;;;;;5009884;28;20035;-89
2021/04/28 16:24:50;;;;;;;12.70;5.57;;;;;;;;;;5007303;28;21496;-82
2021/04/28 16:27:35;;;;;;;17.75;13.10;;;;;;;;;;5007165;28;20053;-83
2021/04/28 16:30:24;;;;;;;12.23;7.10;;;;;;;;;;5000912;28;20045;-83